Etusivu
METAR-TAF:

METAR-TAF

Lentoasemat :

Metcalf Field

Toledo, Ohio, Yhdysvallat

Leveyspiiri: 41-33-47N, Pituuspiiri: 083-28-35W, korkeus merenpinnasta: 189 m

Tämänhetkinen sää

Tämä raportti tehtiin 45 minuuttia sitten, kello 18.53 UTC
Tuuli 6 kn pohjoisesta
Lämpötila 0°C
Kosteus 93%
Ilmanpaine 1010 hPa
Näkyvyys: 0.8 km
Pilvistä 500 ft:n korkeudessa
lumisadetta, sumua

METAR: KTDZ 261853Z AUTO 36006KT 1/2SM SN FG OVC005 00/M01 A2982 RMK AO2 SLP102 P0000 T00001011

Aika: 14:38 (19:38 UTC)


TAF: puuttuu

Säähavainnot ja -ennusteet yli 4000 lentoasemalta (METAR- ja TAF-raportit).

Käytössä olevat sääasemat on merkitty karttaan keltaisilla ja punaisilla pisteillä.

Aseta hiiri pisteen päälle nähdäksesi sääaseman nimen.

Klikkaa sitten nähdäksesi säähavainnot ja -ennusteet.

Kartan vaihtaminen: klikkaa mustalla rastilla varustettuja vihreitä pisteitä, niin voit zoomata sisään; viivalla varustettua vihreää pistettä, niin voit zoomata ulos tai vihreitä nuolia, niin pääset viereisille kartoille.


METAR-TAF: